sensor_id;sensor_type;location;lat;lon;timestamp;temperature;humidity
38592;DHT22;24356;48.460;11.450;2022-08-19T00:01:21;20.30;78.20
38592;DHT22;24356;48.460;11.450;2022-08-19T00:03:47;20.30;78.00
38592;DHT22;24356;48.460;11.450;2022-08-19T00:06:14;20.30;78.10
38592;DHT22;24356;48.460;11.450;2022-08-19T00:08:40;20.30;78.40
38592;DHT22;24356;48.460;11.450;2022-08-19T00:11:05;20.30;78.40
38592;DHT22;24356;48.460;11.450;2022-08-19T00:13:33;20.20;78.40
38592;DHT22;24356;48.460;11.450;2022-08-19T00:15:58;20.20;78.30
38592;DHT22;24356;48.460;11.450;2022-08-19T00:18:25;20.20;78.20
38592;DHT22;24356;48.460;11.450;2022-08-19T00:20:51;20.20;78.40
38592;DHT22;24356;48.460;11.450;2022-08-19T00:23:16;20.20;78.30
38592;DHT22;24356;48.460;11.450;2022-08-19T00:25:42;20.20;78.50
38592;DHT22;24356;48.460;11.450;2022-08-19T00:28:08;20.20;78.70
38592;DHT22;24356;48.460;11.450;2022-08-19T00:30:33;20.20;78.40
38592;DHT22;24356;48.460;11.450;2022-08-19T00:32:59;20.20;78.60
38592;DHT22;24356;48.460;11.450;2022-08-19T00:35:25;20.20;78.40
38592;DHT22;24356;48.460;11.450;2022-08-19T00:37:53;20.10;78.70
38592;DHT22;24356;48.460;11.450;2022-08-19T00:40:18;20.10;78.50
38592;DHT22;24356;48.460;11.450;2022-08-19T00:42:45;20.10;78.50
38592;DHT22;24356;48.460;11.450;2022-08-19T00:45:17;20.10;78.40
38592;DHT22;24356;48.460;11.450;2022-08-19T00:47:44;20.10;78.60
38592;DHT22;24356;48.460;11.450;2022-08-19T00:50:13;20.10;78.60
38592;DHT22;24356;48.460;11.450;2022-08-19T00:52:42;20.10;78.70
38592;DHT22;24356;48.460;11.450;2022-08-19T00:55:13;20.10;78.60
38592;DHT22;24356;48.460;11.450;2022-08-19T00:57:42;20.10;78.60
38592;DHT22;24356;48.460;11.450;2022-08-19T01:00:12;20.10;78.40
38592;DHT22;24356;48.460;11.450;2022-08-19T01:02:41;20.10;78.40
38592;DHT22;24356;48.460;11.450;2022-08-19T01:05:09;20.10;78.50
38592;DHT22;24356;48.460;11.450;2022-08-19T01:07:38;20.10;78.60
38592;DHT22;24356;48.460;11.450;2022-08-19T01:10:06;20.10;78.40
38592;DHT22;24356;48.460;11.450;2022-08-19T01:12:33;20.10;78.50
38592;DHT22;24356;48.460;11.450;2022-08-19T01:14:59;20.10;78.50
38592;DHT22;24356;48.460;11.450;2022-08-19T01:17:25;20.10;78.70
38592;DHT22;24356;48.460;11.450;2022-08-19T01:19:51;20.10;78.60
38592;DHT22;24356;48.460;11.450;2022-08-19T01:22:34;20.10;78.40
38592;DHT22;24356;48.460;11.450;2022-08-19T01:25:03;20.10;78.40
38592;DHT22;24356;48.460;11.450;2022-08-19T01:27:40;20.10;78.60
38592;DHT22;24356;48.460;11.450;2022-08-19T01:30:08;20.00;78.60
38592;DHT22;24356;48.460;11.450;2022-08-19T01:32:34;20.00;78.70
38592;DHT22;24356;48.460;11.450;2022-08-19T01:35:01;20.00;78.60
38592;DHT22;24356;48.460;11.450;2022-08-19T01:37:28;20.00;78.50
38592;DHT22;24356;48.460;11.450;2022-08-19T01:39:55;20.00;78.70
38592;DHT22;24356;48.460;11.450;2022-08-19T01:42:21;20.00;78.50
38592;DHT22;24356;48.460;11.450;2022-08-19T01:44:47;20.00;78.50
38592;DHT22;24356;48.460;11.450;2022-08-19T01:47:13;20.00;78.60
38592;DHT22;24356;48.460;11.450;2022-08-19T01:49:38;20.00;78.60
38592;DHT22;24356;48.460;11.450;2022-08-19T01:52:05;20.00;78.70
38592;DHT22;24356;48.460;11.450;2022-08-19T01:54:31;20.00;78.70
38592;DHT22;24356;48.460;11.450;2022-08-19T01:57:05;20.00;78.40
38592;DHT22;24356;48.460;11.450;2022-08-19T01:59:32;20.00;78.70
38592;DHT22;24356;48.460;11.450;2022-08-19T02:01:58;20.00;78.70
38592;DHT22;24356;48.460;11.450;2022-08-19T02:04:23;20.00;78.70
38592;DHT22;24356;48.460;11.450;2022-08-19T02:06:50;20.00;78.70
38592;DHT22;24356;48.460;11.450;2022-08-19T02:09:16;19.90;78.80
38592;DHT22;24356;48.460;11.450;2022-08-19T02:11:42;19.90;78.70
38592;DHT22;24356;48.460;11.450;2022-08-19T02:14:08;19.90;78.60
38592;DHT22;24356;48.460;11.450;2022-08-19T02:16:35;19.90;78.60
38592;DHT22;24356;48.460;11.450;2022-08-19T02:19:01;19.90;78.90
38592;DHT22;24356;48.460;11.450;2022-08-19T02:21:28;19.90;78.70
38592;DHT22;24356;48.460;11.450;2022-08-19T02:23:55;19.90;78.60
38592;DHT22;24356;48.460;11.450;2022-08-19T02:26:21;19.90;78.40
38592;DHT22;24356;48.460;11.450;2022-08-19T02:28:47;19.90;78.50
38592;DHT22;24356;48.460;11.450;2022-08-19T02:31:16;19.90;78.80
38592;DHT22;24356;48.460;11.450;2022-08-19T02:33:43;19.90;78.90
38592;DHT22;24356;48.460;11.450;2022-08-19T02:36:12;19.80;78.70
38592;DHT22;24356;48.460;11.450;2022-08-19T02:38:38;19.80;78.80
38592;DHT22;24356;48.460;11.450;2022-08-19T02:41:09;19.80;78.80
38592;DHT22;24356;48.460;11.450;2022-08-19T02:43:36;19.80;78.60
38592;DHT22;24356;48.460;11.450;2022-08-19T02:46:15;19.80;78.70
38592;DHT22;24356;48.460;11.450;2022-08-19T02:48:50;19.80;78.40
38592;DHT22;24356;48.460;11.450;2022-08-19T02:51:21;19.80;78.40
38592;DHT22;24356;48.460;11.450;2022-08-19T02:53:47;19.80;78.90
38592;DHT22;24356;48.460;11.450;2022-08-19T02:56:13;19.80;78.80
38592;DHT22;24356;48.460;11.450;2022-08-19T02:58:40;19.80;78.70
38592;DHT22;24356;48.460;11.450;2022-08-19T03:01:06;19.80;78.80
38592;DHT22;24356;48.460;11.450;2022-08-19T03:03:32;19.80;78.90
38592;DHT22;24356;48.460;11.450;2022-08-19T03:06:10;19.80;78.60
38592;DHT22;24356;48.460;11.450;2022-08-19T03:08:38;19.80;78.80
38592;DHT22;24356;48.460;11.450;2022-08-19T03:11:04;19.80;78.80
38592;DHT22;24356;48.460;11.450;2022-08-19T03:13:30;19.80;78.70
38592;DHT22;24356;48.460;11.450;2022-08-19T03:15:55;19.80;78.80
38592;DHT22;24356;48.460;11.450;2022-08-19T03:18:21;19.80;79.30
38592;DHT22;24356;48.460;11.450;2022-08-19T03:20:49;19.80;78.80
38592;DHT22;24356;48.460;11.450;2022-08-19T03:23:16;19.80;78.70
38592;DHT22;24356;48.460;11.450;2022-08-19T03:25:44;19.80;78.70
38592;DHT22;24356;48.460;11.450;2022-08-19T03:28:12;19.80;78.60
38592;DHT22;24356;48.460;11.450;2022-08-19T03:30:39;19.80;78.70
38592;DHT22;24356;48.460;11.450;2022-08-19T03:33:07;19.70;78.70
38592;DHT22;24356;48.460;11.450;2022-08-19T03:35:32;19.80;78.90
38592;DHT22;24356;48.460;11.450;2022-08-19T03:37:59;19.70;78.90
38592;DHT22;24356;48.460;11.450;2022-08-19T03:40:26;19.70;78.90
38592;DHT22;24356;48.460;11.450;2022-08-19T03:42:51;19.70;78.70
38592;DHT22;24356;48.460;11.450;2022-08-19T03:45:17;19.70;78.80
38592;DHT22;24356;48.460;11.450;2022-08-19T03:47:43;19.70;79.10
38592;DHT22;24356;48.460;11.450;2022-08-19T03:50:09;19.70;78.90
38592;DHT22;24356;48.460;11.450;2022-08-19T03:52:34;19.70;78.90
38592;DHT22;24356;48.460;11.450;2022-08-19T03:55:02;19.70;79.00
38592;DHT22;24356;48.460;11.450;2022-08-19T03:57:28;19.70;79.00
38592;DHT22;24356;48.460;11.450;2022-08-19T03:59:53;19.70;79.30
38592;DHT22;24356;48.460;11.450;2022-08-19T04:02:19;19.70;79.10
38592;DHT22;24356;48.460;11.450;2022-08-19T04:04:45;19.70;79.30
38592;DHT22;24356;48.460;11.450;2022-08-19T04:07:12;19.70;78.90
38592;DHT22;24356;48.460;11.450;2022-08-19T04:09:41;19.70;79.00
38592;DHT22;24356;48.460;11.450;2022-08-19T04:12:07;19.70;79.00
38592;DHT22;24356;48.460;11.450;2022-08-19T04:14:34;19.70;78.90
38592;DHT22;24356;48.460;11.450;2022-08-19T04:17:01;19.70;78.80
38592;DHT22;24356;48.460;11.450;2022-08-19T04:19:29;19.70;79.10
38592;DHT22;24356;48.460;11.450;2022-08-19T04:21:55;19.60;78.70
38592;DHT22;24356;48.460;11.450;2022-08-19T04:24:21;19.60;78.80
38592;DHT22;24356;48.460;11.450;2022-08-19T04:26:49;19.60;79.20
38592;DHT22;24356;48.460;11.450;2022-08-19T04:29:25;19.60;78.90
38592;DHT22;24356;48.460;11.450;2022-08-19T04:31:54;19.60;79.20
38592;DHT22;24356;48.460;11.450;2022-08-19T04:34:23;19.60;78.80
38592;DHT22;24356;48.460;11.450;2022-08-19T04:36:51;19.60;78.60
38592;DHT22;24356;48.460;11.450;2022-08-19T04:39:20;19.60;78.90
38592;DHT22;24356;48.460;11.450;2022-08-19T04:41:47;19.60;78.80
38592;DHT22;24356;48.460;11.450;2022-08-19T04:44:33;19.60;78.90
38592;DHT22;24356;48.460;11.450;2022-08-19T04:47:00;19.60;79.00
38592;DHT22;24356;48.460;11.450;2022-08-19T04:49:25;19.60;78.80
38592;DHT22;24356;48.460;11.450;2022-08-19T04:51:53;19.60;79.10
38592;DHT22;24356;48.460;11.450;2022-08-19T04:54:22;19.60;79.10
38592;DHT22;24356;48.460;11.450;2022-08-19T04:56:53;19.60;78.90
38592;DHT22;24356;48.460;11.450;2022-08-19T04:59:19;19.60;78.70
38592;DHT22;24356;48.460;11.450;2022-08-19T05:01:47;19.60;78.80
38592;DHT22;24356;48.460;11.450;2022-08-19T05:04:18;19.60;79.30
38592;DHT22;24356;48.460;11.450;2022-08-19T05:06:46;19.60;78.80
38592;DHT22;24356;48.460;11.450;2022-08-19T05:09:12;19.60;79.00
38592;DHT22;24356;48.460;11.450;2022-08-19T05:11:38;19.60;79.20
38592;DHT22;24356;48.460;11.450;2022-08-19T05:14:05;19.60;79.00
38592;DHT22;24356;48.460;11.450;2022-08-19T05:16:31;19.60;79.20
38592;DHT22;24356;48.460;11.450;2022-08-19T05:18:58;19.60;79.30
38592;DHT22;24356;48.460;11.450;2022-08-19T05:21:52;19.60;79.00
38592;DHT22;24356;48.460;11.450;2022-08-19T05:24:37;19.60;79.20
38592;DHT22;24356;48.460;11.450;2022-08-19T05:27:04;19.60;79.10
38592;DHT22;24356;48.460;11.450;2022-08-19T05:29:32;19.60;79.40
38592;DHT22;24356;48.460;11.450;2022-08-19T05:31:59;19.60;79.30
38592;DHT22;24356;48.460;11.450;2022-08-19T05:34:27;19.60;78.80
38592;DHT22;24356;48.460;11.450;2022-08-19T05:36:57;19.60;78.80
38592;DHT22;24356;48.460;11.450;2022-08-19T05:39:26;19.60;79.10
38592;DHT22;24356;48.460;11.450;2022-08-19T05:41:56;19.60;78.90
38592;DHT22;24356;48.460;11.450;2022-08-19T05:44:23;19.60;79.20
38592;DHT22;24356;48.460;11.450;2022-08-19T05:46:49;19.60;79.00
38592;DHT22;24356;48.460;11.450;2022-08-19T05:49:19;19.60;79.60
38592;DHT22;24356;48.460;11.450;2022-08-19T05:51:45;19.60;79.40
38592;DHT22;24356;48.460;11.450;2022-08-19T05:54:11;19.60;79.30
38592;DHT22;24356;48.460;11.450;2022-08-19T05:56:39;19.60;79.10
38592;DHT22;24356;48.460;11.450;2022-08-19T05:59:06;19.60;79.30
38592;DHT22;24356;48.460;11.450;2022-08-19T06:01:36;19.70;79.20
38592;DHT22;24356;48.460;11.450;2022-08-19T06:04:03;19.60;79.20
38592;DHT22;24356;48.460;11.450;2022-08-19T06:06:34;19.70;79.40
38592;DHT22;24356;48.460;11.450;2022-08-19T06:09:05;19.70;79.50
38592;DHT22;24356;48.460;11.450;2022-08-19T06:14:02;19.70;79.60
38592;DHT22;24356;48.460;11.450;2022-08-19T06:16:29;19.70;79.40
38592;DHT22;24356;48.460;11.450;2022-08-19T06:18:56;19.70;79.10
38592;DHT22;24356;48.460;11.450;2022-08-19T06:21:26;19.70;79.50
38592;DHT22;24356;48.460;11.450;2022-08-19T06:23:53;19.70;78.90
38592;DHT22;24356;48.460;11.450;2022-08-19T06:26:20;19.70;78.70
38592;DHT22;24356;48.460;11.450;2022-08-19T06:28:47;19.70;79.20
38592;DHT22;24356;48.460;11.450;2022-08-19T06:31:20;19.70;79.50
38592;DHT22;24356;48.460;11.450;2022-08-19T06:33:48;19.70;79.70
38592;DHT22;24356;48.460;11.450;2022-08-19T06:36:28;19.70;79.50
38592;DHT22;24356;48.460;11.450;2022-08-19T06:38:57;19.70;79.50
38592;DHT22;24356;48.460;11.450;2022-08-19T06:41:26;19.70;79.60
38592;DHT22;24356;48.460;11.450;2022-08-19T06:43:53;19.70;79.50
38592;DHT22;24356;48.460;11.450;2022-08-19T06:46:19;19.70;79.40
38592;DHT22;24356;48.460;11.450;2022-08-19T06:48:46;19.80;79.60
38592;DHT22;24356;48.460;11.450;2022-08-19T06:51:15;19.70;79.30
38592;DHT22;24356;48.460;11.450;2022-08-19T06:53:46;19.70;79.80
38592;DHT22;24356;48.460;11.450;2022-08-19T06:56:18;19.80;79.90
38592;DHT22;24356;48.460;11.450;2022-08-19T06:58:45;19.80;79.90
38592;DHT22;24356;48.460;11.450;2022-08-19T07:01:12;19.80;80.00
38592;DHT22;24356;48.460;11.450;2022-08-19T07:03:39;19.80;80.40
38592;DHT22;24356;48.460;11.450;2022-08-19T07:06:07;19.80;80.30
38592;DHT22;24356;48.460;11.450;2022-08-19T07:08:35;19.80;79.70
38592;DHT22;24356;48.460;11.450;2022-08-19T07:11:07;19.80;79.90
38592;DHT22;24356;48.460;11.450;2022-08-19T07:13:34;19.90;80.00
38592;DHT22;24356;48.460;11.450;2022-08-19T07:16:06;19.90;80.10
38592;DHT22;24356;48.460;11.450;2022-08-19T07:18:33;19.90;79.60
38592;DHT22;24356;48.460;11.450;2022-08-19T07:21:13;19.90;79.50
38592;DHT22;24356;48.460;11.450;2022-08-19T07:23:40;19.90;80.00
38592;DHT22;24356;48.460;11.450;2022-08-19T07:26:16;20.00;79.60
38592;DHT22;24356;48.460;11.450;2022-08-19T07:28:42;20.00;79.00
38592;DHT22;24356;48.460;11.450;2022-08-19T07:31:11;20.00;78.80
38592;DHT22;24356;48.460;11.450;2022-08-19T07:33:39;20.00;79.00
38592;DHT22;24356;48.460;11.450;2022-08-19T07:36:07;20.00;79.90
38592;DHT22;24356;48.460;11.450;2022-08-19T07:38:34;20.10;79.60
38592;DHT22;24356;48.460;11.450;2022-08-19T07:41:00;20.10;79.60
38592;DHT22;24356;48.460;11.450;2022-08-19T07:43:27;20.10;79.20
38592;DHT22;24356;48.460;11.450;2022-08-19T07:45:54;20.10;80.00
38592;DHT22;24356;48.460;11.450;2022-08-19T07:48:23;20.10;78.90
38592;DHT22;24356;48.460;11.450;2022-08-19T07:50:53;20.10;78.90
38592;DHT22;24356;48.460;11.450;2022-08-19T07:53:21;20.10;78.90
38592;DHT22;24356;48.460;11.450;2022-08-19T07:55:47;20.20;79.20
38592;DHT22;24356;48.460;11.450;2022-08-19T07:58:16;20.20;79.20
38592;DHT22;24356;48.460;11.450;2022-08-19T08:00:44;20.20;79.00
38592;DHT22;24356;48.460;11.450;2022-08-19T08:03:10;20.20;78.60
38592;DHT22;24356;48.460;11.450;2022-08-19T08:05:36;20.20;78.40
38592;DHT22;24356;48.460;11.450;2022-08-19T08:08:20;20.20;79.10
38592;DHT22;24356;48.460;11.450;2022-08-19T08:11:05;20.30;78.60
38592;DHT22;24356;48.460;11.450;2022-08-19T08:13:31;20.30;77.80
38592;DHT22;24356;48.460;11.450;2022-08-19T08:16:01;20.30;77.60
38592;DHT22;24356;48.460;11.450;2022-08-19T08:18:27;20.30;78.00
38592;DHT22;24356;48.460;11.450;2022-08-19T08:20:54;20.40;77.50
38592;DHT22;24356;48.460;11.450;2022-08-19T08:23:19;20.40;78.20
38592;DHT22;24356;48.460;11.450;2022-08-19T08:25:48;20.40;77.50
38592;DHT22;24356;48.460;11.450;2022-08-19T08:28:15;20.40;77.70
38592;DHT22;24356;48.460;11.450;2022-08-19T08:30:41;20.40;78.00
38592;DHT22;24356;48.460;11.450;2022-08-19T08:33:09;20.40;78.10
38592;DHT22;24356;48.460;11.450;2022-08-19T08:35:35;20.40;78.40
38592;DHT22;24356;48.460;11.450;2022-08-19T08:38:02;20.40;78.80
38592;DHT22;24356;48.460;11.450;2022-08-19T08:43:44;20.30;79.40
38592;DHT22;24356;48.460;11.450;2022-08-19T08:46:14;20.30;78.60
38592;DHT22;24356;48.460;11.450;2022-08-19T08:48:59;20.40;78.30
38592;DHT22;24356;48.460;11.450;2022-08-19T08:51:32;20.40;77.00
38592;DHT22;24356;48.460;11.450;2022-08-19T08:53:59;20.40;77.40
38592;DHT22;24356;48.460;11.450;2022-08-19T08:56:25;20.40;77.80
38592;DHT22;24356;48.460;11.450;2022-08-19T08:58:59;20.40;77.60
38592;DHT22;24356;48.460;11.450;2022-08-19T09:01:26;20.40;78.30
38592;DHT22;24356;48.460;11.450;2022-08-19T09:03:52;20.40;77.80
38592;DHT22;24356;48.460;11.450;2022-08-19T09:16:48;20.30;79.30
38592;DHT22;24356;48.460;11.450;2022-08-19T09:19:15;20.30;78.60
38592;DHT22;24356;48.460;11.450;2022-08-19T09:21:42;20.30;79.70
38592;DHT22;24356;48.460;11.450;2022-08-19T09:24:08;20.20;79.80
38592;DHT22;24356;48.460;11.450;2022-08-19T09:26:34;20.20;79.60
38592;DHT22;24356;48.460;11.450;2022-08-19T09:29:00;20.20;79.50
38592;DHT22;24356;48.460;11.450;2022-08-19T09:31:28;20.20;78.80
38592;DHT22;24356;48.460;11.450;2022-08-19T09:33:55;20.20;79.60
38592;DHT22;24356;48.460;11.450;2022-08-19T09:36:26;20.30;78.10
38592;DHT22;24356;48.460;11.450;2022-08-19T09:38:52;20.30;78.90
38592;DHT22;24356;48.460;11.450;2022-08-19T09:41:21;20.30;78.70
38592;DHT22;24356;48.460;11.450;2022-08-19T09:43:49;20.30;77.30
38592;DHT22;24356;48.460;11.450;2022-08-19T09:46:18;20.40;77.50
38592;DHT22;24356;48.460;11.450;2022-08-19T09:48:46;20.40;78.30
38592;DHT22;24356;48.460;11.450;2022-08-19T09:51:15;20.40;77.20
38592;DHT22;24356;48.460;11.450;2022-08-19T09:53:42;20.50;76.90
38592;DHT22;24356;48.460;11.450;2022-08-19T09:56:09;20.50;76.90
38592;DHT22;24356;48.460;11.450;2022-08-19T09:58:35;20.50;77.10
38592;DHT22;24356;48.460;11.450;2022-08-19T10:01:02;20.60;77.80
38592;DHT22;24356;48.460;11.450;2022-08-19T10:03:29;20.60;78.10
38592;DHT22;24356;48.460;11.450;2022-08-19T10:05:57;20.60;77.50
38592;DHT22;24356;48.460;11.450;2022-08-19T10:08:27;20.60;78.10
38592;DHT22;24356;48.460;11.450;2022-08-19T10:10:54;20.60;77.80
38592;DHT22;24356;48.460;11.450;2022-08-19T10:13:23;20.60;77.60
38592;DHT22;24356;48.460;11.450;2022-08-19T10:15:51;20.50;78.10
38592;DHT22;24356;48.460;11.450;2022-08-19T10:18:19;20.50;78.30
38592;DHT22;24356;48.460;11.450;2022-08-19T10:20:45;20.50;78.60
38592;DHT22;24356;48.460;11.450;2022-08-19T10:23:12;20.50;79.40
38592;DHT22;24356;48.460;11.450;2022-08-19T10:25:37;20.40;78.30
38592;DHT22;24356;48.460;11.450;2022-08-19T10:28:04;20.40;79.00
38592;DHT22;24356;48.460;11.450;2022-08-19T10:30:31;20.40;78.80
38592;DHT22;24356;48.460;11.450;2022-08-19T10:32:57;20.40;78.90
38592;DHT22;24356;48.460;11.450;2022-08-19T10:35:23;20.40;78.60
38592;DHT22;24356;48.460;11.450;2022-08-19T10:37:50;20.40;78.70
38592;DHT22;24356;48.460;11.450;2022-08-19T10:40:16;20.40;78.20
38592;DHT22;24356;48.460;11.450;2022-08-19T10:42:41;20.40;78.60
38592;DHT22;24356;48.460;11.450;2022-08-19T10:45:07;20.40;78.10
38592;DHT22;24356;48.460;11.450;2022-08-19T10:47:35;20.40;78.00
38592;DHT22;24356;48.460;11.450;2022-08-19T10:50:00;20.40;78.00
38592;DHT22;24356;48.460;11.450;2022-08-19T10:52:47;20.40;77.90
38592;DHT22;24356;48.460;11.450;2022-08-19T10:55:13;20.50;78.30
38592;DHT22;24356;48.460;11.450;2022-08-19T10:57:57;20.40;78.30
38592;DHT22;24356;48.460;11.450;2022-08-19T11:00:23;20.50;78.20
38592;DHT22;24356;48.460;11.450;2022-08-19T11:02:50;20.50;78.20
38592;DHT22;24356;48.460;11.450;2022-08-19T11:05:18;20.50;77.80
38592;DHT22;24356;48.460;11.450;2022-08-19T11:07:45;20.50;78.40
38592;DHT22;24356;48.460;11.450;2022-08-19T11:10:13;20.60;78.70
38592;DHT22;24356;48.460;11.450;2022-08-19T11:12:40;20.70;78.70
38592;DHT22;24356;48.460;11.450;2022-08-19T11:15:07;20.80;80.20
38592;DHT22;24356;48.460;11.450;2022-08-19T11:17:34;21.00;81.00
38592;DHT22;24356;48.460;11.450;2022-08-19T11:20:01;21.10;80.70
38592;DHT22;24356;48.460;11.450;2022-08-19T11:22:30;21.20;80.60
38592;DHT22;24356;48.460;11.450;2022-08-19T11:24:55;21.30;80.30
38592;DHT22;24356;48.460;11.450;2022-08-19T11:27:21;21.30;80.30
38592;DHT22;24356;48.460;11.450;2022-08-19T11:29:46;21.40;80.90
38592;DHT22;24356;48.460;11.450;2022-08-19T11:32:12;21.40;81.30
38592;DHT22;24356;48.460;11.450;2022-08-19T11:34:39;21.50;81.00
38592;DHT22;24356;48.460;11.450;2022-08-19T11:37:05;21.50;81.70
38592;DHT22;24356;48.460;11.450;2022-08-19T11:39:33;21.60;81.00
38592;DHT22;24356;48.460;11.450;2022-08-19T11:42:00;21.60;81.00
38592;DHT22;24356;48.460;11.450;2022-08-19T11:44:27;21.70;80.50
38592;DHT22;24356;48.460;11.450;2022-08-19T11:46:55;21.70;80.90
38592;DHT22;24356;48.460;11.450;2022-08-19T11:49:21;21.70;81.00
38592;DHT22;24356;48.460;11.450;2022-08-19T11:51:47;21.80;81.20
38592;DHT22;24356;48.460;11.450;2022-08-19T11:54:15;21.80;80.80
38592;DHT22;24356;48.460;11.450;2022-08-19T11:56:42;21.80;80.90
38592;DHT22;24356;48.460;11.450;2022-08-19T11:59:08;21.80;81.00
38592;DHT22;24356;48.460;11.450;2022-08-19T12:01:36;21.80;80.90
38592;DHT22;24356;48.460;11.450;2022-08-19T12:04:02;21.80;80.80
38592;DHT22;24356;48.460;11.450;2022-08-19T12:06:31;21.80;80.80
38592;DHT22;24356;48.460;11.450;2022-08-19T12:09:00;21.80;81.00
38592;DHT22;24356;48.460;11.450;2022-08-19T12:11:27;21.80;81.00
38592;DHT22;24356;48.460;11.450;2022-08-19T12:13:53;21.70;81.10
38592;DHT22;24356;48.460;11.450;2022-08-19T12:16:25;21.70;81.20
38592;DHT22;24356;48.460;11.450;2022-08-19T12:18:52;21.60;81.20
38592;DHT22;24356;48.460;11.450;2022-08-19T12:21:27;21.60;81.40
38592;DHT22;24356;48.460;11.450;2022-08-19T12:23:55;21.50;81.70
38592;DHT22;24356;48.460;11.450;2022-08-19T12:26:21;21.50;81.40
38592;DHT22;24356;48.460;11.450;2022-08-19T12:28:48;21.50;81.30
38592;DHT22;24356;48.460;11.450;2022-08-19T12:31:14;21.40;81.50
38592;DHT22;24356;48.460;11.450;2022-08-19T12:33:41;21.30;81.30
38592;DHT22;24356;48.460;11.450;2022-08-19T12:36:10;21.20;80.90
38592;DHT22;24356;48.460;11.450;2022-08-19T12:38:37;21.20;80.20
38592;DHT22;24356;48.460;11.450;2022-08-19T12:41:05;21.20;79.50
38592;DHT22;24356;48.460;11.450;2022-08-19T12:43:35;21.10;79.00
38592;DHT22;24356;48.460;11.450;2022-08-19T12:46:01;21.10;78.60
38592;DHT22;24356;48.460;11.450;2022-08-19T12:48:27;21.10;78.40
38592;DHT22;24356;48.460;11.450;2022-08-19T12:50:53;21.00;78.40
38592;DHT22;24356;48.460;11.450;2022-08-19T12:53:19;21.00;78.10
38592;DHT22;24356;48.460;11.450;2022-08-19T12:55:45;20.90;78.20
38592;DHT22;24356;48.460;11.450;2022-08-19T12:58:10;20.90;78.30
38592;DHT22;24356;48.460;11.450;2022-08-19T13:00:38;20.90;78.00
38592;DHT22;24356;48.460;11.450;2022-08-19T13:03:06;20.90;77.70
38592;DHT22;24356;48.460;11.450;2022-08-19T13:05:33;20.90;78.10
38592;DHT22;24356;48.460;11.450;2022-08-19T13:07:59;21.00;77.60
38592;DHT22;24356;48.460;11.450;2022-08-19T13:10:34;21.00;77.40
38592;DHT22;24356;48.460;11.450;2022-08-19T13:13:04;21.00;77.50
38592;DHT22;24356;48.460;11.450;2022-08-19T13:15:33;21.00;77.50
38592;DHT22;24356;48.460;11.450;2022-08-19T13:17:59;21.00;77.30
38592;DHT22;24356;48.460;11.450;2022-08-19T13:20:25;21.10;77.40
38592;DHT22;24356;48.460;11.450;2022-08-19T13:22:51;21.10;77.30
38592;DHT22;24356;48.460;11.450;2022-08-19T13:25:17;21.10;77.20
38592;DHT22;24356;48.460;11.450;2022-08-19T13:27:46;21.20;77.50
38592;DHT22;24356;48.460;11.450;2022-08-19T13:30:14;21.20;77.10
38592;DHT22;24356;48.460;11.450;2022-08-19T13:32:59;21.20;77.30
38592;DHT22;24356;48.460;11.450;2022-08-19T13:38:11;21.20;77.20
38592;DHT22;24356;48.460;11.450;2022-08-19T13:40:39;21.20;77.40
38592;DHT22;24356;48.460;11.450;2022-08-19T13:43:05;21.30;77.40
38592;DHT22;24356;48.460;11.450;2022-08-19T13:45:32;21.30;77.50
38592;DHT22;24356;48.460;11.450;2022-08-19T13:47:59;21.30;77.40
38592;DHT22;24356;48.460;11.450;2022-08-19T13:50:29;21.40;77.30
38592;DHT22;24356;48.460;11.450;2022-08-19T13:52:57;21.40;77.40
38592;DHT22;24356;48.460;11.450;2022-08-19T13:55:24;21.50;77.60
38592;DHT22;24356;48.460;11.450;2022-08-19T13:57:51;21.50;78.20
38592;DHT22;24356;48.460;11.450;2022-08-19T14:00:18;21.50;79.10
38592;DHT22;24356;48.460;11.450;2022-08-19T14:02:46;21.40;79.60
38592;DHT22;24356;48.460;11.450;2022-08-19T14:05:15;21.40;79.80
38592;DHT22;24356;48.460;11.450;2022-08-19T14:07:41;21.40;80.00
38592;DHT22;24356;48.460;11.450;2022-08-19T14:10:10;21.40;79.70
38592;DHT22;24356;48.460;11.450;2022-08-19T14:12:36;21.30;79.80
38592;DHT22;24356;48.460;11.450;2022-08-19T14:15:03;21.30;79.60
38592;DHT22;24356;48.460;11.450;2022-08-19T14:17:29;21.30;79.30
38592;DHT22;24356;48.460;11.450;2022-08-19T14:19:59;21.30;79.00
38592;DHT22;24356;48.460;11.450;2022-08-19T14:22:30;21.40;79.10
38592;DHT22;24356;48.460;11.450;2022-08-19T14:24:57;21.40;79.30
38592;DHT22;24356;48.460;11.450;2022-08-19T14:27:22;21.50;79.60
38592;DHT22;24356;48.460;11.450;2022-08-19T14:29:53;21.50;80.00
38592;DHT22;24356;48.460;11.450;2022-08-19T14:32:19;21.60;80.40
38592;DHT22;24356;48.460;11.450;2022-08-19T14:34:46;21.60;80.60
38592;DHT22;24356;48.460;11.450;2022-08-19T14:37:13;21.60;80.40
38592;DHT22;24356;48.460;11.450;2022-08-19T14:39:41;21.60;80.60
38592;DHT22;24356;48.460;11.450;2022-08-19T14:42:08;21.60;80.30
38592;DHT22;24356;48.460;11.450;2022-08-19T14:44:35;21.50;80.40
38592;DHT22;24356;48.460;11.450;2022-08-19T14:47:01;21.50;80.20
38592;DHT22;24356;48.460;11.450;2022-08-19T14:49:26;21.50;80.80
38592;DHT22;24356;48.460;11.450;2022-08-19T14:51:52;21.40;80.70
38592;DHT22;24356;48.460;11.450;2022-08-19T14:54:18;21.40;80.80
38592;DHT22;24356;48.460;11.450;2022-08-19T14:56:43;21.40;80.60
38592;DHT22;24356;48.460;11.450;2022-08-19T14:59:09;21.40;80.60
38592;DHT22;24356;48.460;11.450;2022-08-19T15:01:35;21.30;80.40
38592;DHT22;24356;48.460;11.450;2022-08-19T15:04:00;21.30;80.20
38592;DHT22;24356;48.460;11.450;2022-08-19T15:06:26;21.30;80.30
38592;DHT22;24356;48.460;11.450;2022-08-19T15:08:53;21.20;80.10
38592;DHT22;24356;48.460;11.450;2022-08-19T15:11:21;21.20;80.00
38592;DHT22;24356;48.460;11.450;2022-08-19T15:13:48;21.10;79.50
38592;DHT22;24356;48.460;11.450;2022-08-19T15:16:15;21.10;79.30
38592;DHT22;24356;48.460;11.450;2022-08-19T15:18:41;21.10;79.20
38592;DHT22;24356;48.460;11.450;2022-08-19T15:21:13;21.00;79.40
38592;DHT22;24356;48.460;11.450;2022-08-19T15:23:44;21.00;79.10
38592;DHT22;24356;48.460;11.450;2022-08-19T15:26:10;21.00;79.20
38592;DHT22;24356;48.460;11.450;2022-08-19T15:28:36;21.00;79.10
38592;DHT22;24356;48.460;11.450;2022-08-19T15:31:02;21.00;79.10
38592;DHT22;24356;48.460;11.450;2022-08-19T15:33:30;21.00;79.00
38592;DHT22;24356;48.460;11.450;2022-08-19T15:35:55;20.90;79.30
38592;DHT22;24356;48.460;11.450;2022-08-19T15:38:22;20.90;79.00